Time;durP1;ratioP1;P1;durP2;ratioP2;P2;SDS_P1;SDS_P2;PMS_P1;PMS_P2;Temp;Humidity;BMP_temperature;BMP_pressure;BME280_temperature;BME280_humidity;BME280_pressure;Samples;Min_cycle;Max_cycle;Signal;HPM_P1;HPM_P2
2021/06/09 00:00:22;;;;;;;32.83;24.73;;;17.10;1.00;;;;;;5095534;28;20445;-77
2021/06/09 00:02:48;;;;;;;31.17;24.90;;;17.20;1.00;;;;;;5096574;28;20028;-78
2021/06/09 00:05:14;;;;;;;27.23;24.15;;;17.30;1.00;;;;;;5097052;28;20016;-78
2021/06/09 00:07:40;;;;;;;27.98;25.08;;;17.20;1.00;;;;;;5096435;28;20021;-78
2021/06/09 00:10:07;;;;;;;30.33;26.30;;;17.10;1.00;;;;;;5090817;28;20032;-76
2021/06/09 00:12:33;;;;;;;32.80;27.60;;;17.00;1.00;;;;;;5078867;28;20032;-77
2021/06/09 00:14:59;;;;;;;30.77;27.55;;;16.90;1.00;;;;;;5079582;28;20032;-77
2021/06/09 00:17:26;;;;;;;27.75;24.92;;;16.90;1.00;;;;;;5076390;28;20476;-79
2021/06/09 00:19:52;;;;;;;29.75;25.20;;;16.80;1.00;;;;;;5076105;28;20032;-79
2021/06/09 00:22:18;;;;;;;29.65;24.95;;;16.80;1.00;;;;;;5077783;28;20028;-78
2021/06/09 00:24:45;;;;;;;29.58;25.38;;;16.70;1.00;;;;;;5090135;28;20032;-78
2021/06/09 00:27:11;;;;;;;30.17;27.10;;;16.70;1.00;;;;;;5096676;28;20027;-75
2021/06/09 00:29:37;;;;;;;28.92;25.83;;;16.70;1.00;;;;;;5096824;28;20032;-76
2021/06/09 00:32:03;;;;;;;28.45;25.58;;;16.70;1.00;;;;;;5099896;28;20103;-77
2021/06/09 00:34:29;;;;;;;27.35;24.58;;;16.60;1.00;;;;;;5097408;28;20031;-77
2021/06/09 00:36:55;;;;;;;29.73;26.13;;;16.60;1.00;;;;;;5098205;28;20506;-76
2021/06/09 00:39:20;;;;;;;31.02;26.13;;;16.60;1.00;;;;;;5100345;28;20024;-78
2021/06/09 00:41:46;;;;;;;31.83;26.23;;;16.70;1.00;;;;;;5099644;28;20024;-77
2021/06/09 00:44:12;;;;;;;33.70;28.55;;;16.80;1.00;;;;;;5095486;28;20394;-77
2021/06/09 00:46:39;;;;;;;35.95;27.80;;;16.90;1.00;;;;;;5115772;28;20008;-79
2021/06/09 00:49:06;;;;;;;30.95;27.63;;;16.90;1.00;;;;;;5110054;28;20100;-76
2021/06/09 00:51:33;;;;;;;30.52;26.85;;;16.90;1.00;;;;;;5102922;28;20016;-78
2021/06/09 00:54:05;;;;;;;32.28;26.60;;;16.80;1.00;;;;;;5104027;28;20100;-76
2021/06/09 00:56:33;;;;;;;31.20;27.45;;;16.90;1.00;;;;;;5110965;28;20028;-76
2021/06/09 00:58:59;;;;;;;34.47;28.55;;;16.90;1.00;;;;;;5106898;28;20333;-78
2021/06/09 01:01:27;;;;;;;32.97;28.48;;;16.90;1.00;;;;;;5095411;28;20024;-77
2021/06/09 01:03:53;;;;;;;33.40;27.48;;;16.80;1.00;;;;;;5106114;28;20035;-76
2021/06/09 01:06:20;;;;;;;39.83;27.58;;;16.70;1.00;;;;;;5113010;28;20028;-75
2021/06/09 01:08:46;;;;;;;33.75;28.63;;;16.70;1.00;;;;;;5111974;28;20028;-78
2021/06/09 01:11:20;;;;;;;33.90;28.20;;;16.60;1.00;;;;;;5107694;28;20387;-78
2021/06/09 01:13:46;;;;;;;35.22;28.88;;;16.50;1.00;;;;;;5095815;28;20080;-77
2021/06/09 01:16:12;;;;;;;32.47;27.92;;;16.50;1.00;;;;;;5094618;28;20204;-77
2021/06/09 01:18:38;;;;;;;39.67;29.58;;;16.40;1.00;;;;;;5094249;28;20511;-76
2021/06/09 01:21:04;;;;;;;31.67;28.10;;;16.40;1.00;;;;;;5095169;28;20036;-77
2021/06/09 01:23:30;;;;;;;30.80;27.60;;;16.50;1.00;;;;;;5088452;28;20024;-77
2021/06/09 01:25:57;;;;;;;36.47;29.40;;;16.50;1.00;;;;;;5094963;28;20085;-78
2021/06/09 01:28:23;;;;;;;32.60;28.80;;;16.50;1.00;;;;;;5094698;28;20077;-77
2021/06/09 01:30:50;;;;;;;33.60;29.17;;;16.50;1.00;;;;;;5095023;28;20016;-78
2021/06/09 01:33:16;;;;;;;32.28;27.77;;;16.60;1.00;;;;;;5093659;28;20027;-77
2021/06/09 01:35:43;;;;;;;32.15;27.65;;;16.80;1.00;;;;;;5095042;28;20073;-76
2021/06/09 01:38:09;;;;;;;31.05;27.08;;;16.80;1.00;;;;;;5076591;28;20550;-77
2021/06/09 01:40:35;;;;;;;31.15;27.85;;;16.90;1.00;;;;;;5093246;28;20021;-76
2021/06/09 01:43:04;;;;;;;31.45;28.23;;;16.90;1.00;;;;;;5094003;28;20020;-78
2021/06/09 01:45:33;;;;;;;29.10;26.00;;;16.90;1.00;;;;;;5094026;28;20027;-77
2021/06/09 01:48:00;;;;;;;29.15;26.25;;;16.80;1.00;;;;;;5107698;28;20020;-78
2021/06/09 01:50:26;;;;;;;33.08;27.75;;;16.90;1.00;;;;;;5118571;28;20096;-78
2021/06/09 01:52:53;;;;;;;31.70;28.30;;;16.90;1.00;;;;;;5102170;28;20028;-78
2021/06/09 01:55:22;;;;;;;30.27;26.98;;;16.70;1.00;;;;;;5094846;28;20016;-78
2021/06/09 01:57:48;;;;;;;30.05;26.98;;;16.60;1.00;;;;;;5093924;28;20103;-77
2021/06/09 02:00:26;;;;;;;30.45;27.35;;;16.50;1.00;;;;;;5093739;28;20032;-78
2021/06/09 02:02:58;;;;;;;32.17;28.77;;;16.50;1.00;;;;;;5092518;28;20031;-77
2021/06/09 02:05:27;;;;;;;32.30;28.90;;;16.40;1.00;;;;;;5092119;28;20081;-77
2021/06/09 02:07:55;;;;;;;29.88;26.85;;;16.50;1.00;;;;;;5093530;28;20442;-77
2021/06/09 02:10:22;;;;;;;32.15;28.40;;;16.50;1.00;;;;;;5092136;28;20071;-78
2021/06/09 02:12:51;;;;;;;31.70;28.30;;;16.40;1.00;;;;;;5093964;28;20020;-77
2021/06/09 02:15:20;;;;;;;32.67;28.67;;;16.40;1.00;;;;;;5093219;28;20023;-78
2021/06/09 02:17:57;;;;;;;30.20;27.13;;;16.40;1.00;;;;;;5093077;28;20107;-77
2021/06/09 02:20:25;;;;;;;31.60;28.27;;;16.40;1.00;;;;;;5092205;28;20020;-78
2021/06/09 02:22:51;;;;;;;34.33;28.67;;;16.40;1.00;;;;;;5085820;28;20076;-77
2021/06/09 02:25:18;;;;;;;31.70;28.48;;;16.40;1.00;;;;;;5097301;28;20056;-80
2021/06/09 02:27:44;;;;;;;29.75;26.67;;;16.40;1.00;;;;;;5112776;28;20043;-76
2021/06/09 02:30:11;;;;;;;32.22;28.73;;;16.40;1.00;;;;;;5094946;28;20111;-77
2021/06/09 02:32:37;;;;;;;38.40;30.30;;;16.30;1.00;;;;;;5095152;28;20042;-77
2021/06/09 02:35:10;;;;;;;34.45;28.98;;;16.40;1.00;;;;;;5095612;28;20433;-77
2021/06/09 02:37:36;;;;;;;32.60;28.98;;;16.30;1.00;;;;;;5093264;28;20052;-77
2021/06/09 02:40:02;;;;;;;34.30;30.58;;;16.30;1.00;;;;;;5093343;28;20060;-78
2021/06/09 02:42:28;;;;;;;36.95;30.50;;;16.30;1.00;;;;;;5088424;28;20024;-77
2021/06/09 02:44:54;;;;;;;36.65;31.20;;;16.30;1.00;;;;;;5093071;28;20032;-77
2021/06/09 02:47:19;;;;;;;32.97;28.98;;;16.30;1.00;;;;;;5092768;28;20054;-77
2021/06/09 02:49:46;;;;;;;33.03;29.38;;;16.40;1.00;;;;;;5091524;28;20552;-76
2021/06/09 02:52:34;;;;;;;30.17;26.98;;;16.50;1.00;;;;;;5074919;28;20023;-79
2021/06/09 02:55:26;;;;;;;31.50;28.20;;;16.50;1.00;;;;;;5093339;28;20016;-77
2021/06/09 02:58:04;;;;;;;33.55;28.38;;;16.50;1.00;;;;;;5093135;28;20030;-76
2021/06/09 03:00:47;;;;;;;32.38;28.90;;;16.60;1.00;;;;;;5093170;28;20046;-77
2021/06/09 03:03:42;;;;;;;30.67;27.38;;;16.50;1.00;;;;;;5092996;28;20044;-77
2021/06/09 03:06:20;;;;;;;30.55;27.38;;;16.50;1.00;;;;;;5092856;28;20467;-78
2021/06/09 03:09:29;;;;;;;30.67;27.45;;;16.70;1.00;;;;;;5112353;28;20086;-77
2021/06/09 03:12:14;;;;;;;31.13;27.80;;;16.80;1.00;;;;;;5094235;28;20027;-78
2021/06/09 03:17:19;;;;;;;38.58;32.67;;;16.90;1.00;;;;;;5088449;28;20032;-76
2021/06/09 03:20:18;;;;;;;37.15;29.88;;;16.80;1.00;;;;;;5080722;28;20021;-76
2021/06/09 03:22:55;;;;;;;34.35;30.38;;;16.70;1.00;;;;;;5097309;28;20368;-75
2021/06/09 03:25:28;;;;;;;38.05;31.98;;;16.60;1.00;;;;;;5098912;28;20054;-76
2021/06/09 03:28:00;;;;;;;33.72;29.88;;;16.60;1.00;;;;;;5098693;28;20024;-76
2021/06/09 03:30:29;;;;;;;38.40;31.25;;;16.60;1.00;;;;;;5096435;28;20031;-77
2021/06/09 03:33:03;;;;;;;38.10;30.38;;;16.60;1.00;;;;;;5097473;28;20044;-77
2021/06/09 03:35:41;;;;;;;34.92;31.20;;;16.60;1.00;;;;;;5096473;28;20028;-76
2021/06/09 03:38:13;;;;;;;32.15;28.52;;;16.50;1.00;;;;;;5097772;28;20048;-77
2021/06/09 03:40:42;;;;;;;32.55;27.88;;;16.40;1.00;;;;;;5097093;28;20016;-78
2021/06/09 03:43:11;;;;;;;31.00;27.50;;;16.40;1.00;;;;;;5097227;28;20453;-77
2021/06/09 03:45:49;;;;;;;30.23;26.88;;;16.40;1.00;;;;;;5097676;28;20043;-77
2021/06/09 03:48:18;;;;;;;32.72;27.65;;;16.30;1.00;;;;;;5099795;28;20027;-77
2021/06/09 03:50:47;;;;;;;34.10;28.92;;;16.30;1.00;;;;;;5098291;28;20021;-77
2021/06/09 03:53:13;;;;;;;31.42;28.02;;;16.30;1.00;;;;;;5097058;28;20111;-77
2021/06/09 03:55:42;;;;;;;29.60;26.60;;;16.40;1.00;;;;;;5077874;28;20107;-78
2021/06/09 03:58:10;;;;;;;36.38;30.08;;;16.40;1.00;;;;;;5096541;28;20020;-77
2021/06/09 04:00:37;;;;;;;34.80;29.33;;;16.50;1.00;;;;;;5098383;28;20032;-78
2021/06/09 04:03:04;;;;;;;34.83;29.98;;;16.60;1.00;;;;;;5105047;28;20017;-77
2021/06/09 04:05:31;;;;;;;34.75;30.17;;;16.60;1.00;;;;;;5105128;28;20048;-78
2021/06/09 04:07:58;;;;;;;35.55;28.17;;;16.70;1.00;;;;;;5115727;28;20103;-76
2021/06/09 04:10:25;;;;;;;31.98;27.98;;;16.90;1.00;;;;;;5096846;28;20543;-77
2021/06/09 04:12:51;;;;;;;31.25;27.83;;;16.90;1.00;;;;;;5099822;28;20024;-77
2021/06/09 04:15:19;;;;;;;33.70;27.88;;;16.80;1.00;;;;;;5080936;28;20016;-75
2021/06/09 04:17:48;;;;;;;31.67;27.38;;;16.80;1.00;;;;;;5077956;28;20016;-77
2021/06/09 04:20:22;;;;;;;35.53;27.83;;;16.70;1.00;;;;;;5075508;28;20137;-78
2021/06/09 04:22:48;;;;;;;32.70;27.20;;;16.60;1.00;;;;;;5131880;22;20104;-76
2021/06/09 04:25:13;;;;;;;31.08;27.23;;;16.50;1.00;;;;;;5120637;28;20095;-77
2021/06/09 04:27:43;;;;;;;33.90;29.02;;;16.50;1.00;;;;;;5121624;28;20432;-77
2021/06/09 04:30:10;;;;;;;36.10;28.10;;;16.60;1.00;;;;;;5118181;28;20111;-77
2021/06/09 04:32:54;;;;;;;32.53;27.23;;;16.60;1.00;;;;;;5118245;28;20028;-77
2021/06/09 04:35:22;;;;;;;34.20;27.17;;;16.70;1.00;;;;;;5116608;28;20049;-75
2021/06/09 04:37:48;;;;;;;32.53;28.95;;;17.00;1.00;;;;;;5120579;28;20069;-75
2021/06/09 04:40:16;;;;;;;29.38;26.20;;;17.00;1.00;;;;;;5124022;28;20128;-75
2021/06/09 04:42:43;;;;;;;30.20;26.23;;;17.20;1.00;;;;;;5119512;28;20043;-77
2021/06/09 04:45:11;;;;;;;30.38;27.00;;;17.30;1.00;;;;;;5116295;28;20053;-77
2021/06/09 04:47:37;;;;;;;33.58;28.02;;;17.40;1.00;;;;;;5116994;28;20027;-76
2021/06/09 04:50:03;;;;;;;28.80;25.35;;;17.40;1.00;;;;;;5115596;28;20034;-76
2021/06/09 04:52:29;;;;;;;32.08;26.17;;;17.40;1.00;;;;;;5117461;28;20019;-75
2021/06/09 04:54:54;;;;;;;33.53;25.60;;;17.40;1.00;;;;;;5121318;28;20023;-75
2021/06/09 04:57:20;;;;;;;28.98;24.27;;;17.50;1.00;;;;;;5118128;28;20023;-75
2021/06/09 04:59:46;;;;;;;35.00;26.05;;;17.60;1.00;;;;;;5119624;28;20059;-76
2021/06/09 05:02:11;;;;;;;29.38;24.90;;;17.60;1.00;;;;;;5120883;28;20054;-77
2021/06/09 05:04:37;;;;;;;27.17;24.23;;;17.60;1.00;;;;;;5121501;28;20024;-75
2021/06/09 05:07:03;;;;;;;32.00;23.42;;;17.60;1.00;;;;;;5126139;28;20031;-75
2021/06/09 05:09:29;;;;;;;23.55;20.90;;;17.60;1.00;;;;;;5135804;28;20031;-77
2021/06/09 05:12:24;;;;;;;24.38;21.30;;;17.60;1.00;;;;;;5123666;28;20028;-76
2021/06/09 05:14:54;;;;;;;24.95;21.10;;;17.70;1.00;;;;;;5121588;28;20072;-76
2021/06/09 05:17:27;;;;;;;28.02;22.48;;;17.70;1.00;;;;;;5125504;28;20038;-76
2021/06/09 05:19:56;;;;;;;22.52;20.23;;;17.70;1.00;;;;;;5133964;28;20058;-74
2021/06/09 05:22:44;;;;;;;23.35;21.05;;;17.70;1.00;;;;;;5122079;28;20064;-74
2021/06/09 05:25:11;;;;;;;25.33;21.42;;;17.80;1.00;;;;;;5107637;28;20039;-75
2021/06/09 05:27:38;;;;;;;22.33;19.45;;;17.80;1.00;;;;;;5107961;28;20035;-76
2021/06/09 05:30:06;;;;;;;22.50;18.40;;;17.90;1.00;;;;;;5107062;28;20031;-76
2021/06/09 05:32:32;;;;;;;22.38;20.05;;;18.00;1.00;;;;;;5108357;28;20074;-76
2021/06/09 05:34:59;;;;;;;21.35;19.27;;;17.90;1.00;;;;;;5103109;28;20028;-77
2021/06/09 05:37:25;;;;;;;19.88;17.83;;;18.20;1.00;;;;;;5097503;28;20034;-76
2021/06/09 05:39:57;;;;;;;20.75;18.65;;;18.30;1.00;;;;;;5095973;28;20063;-76
2021/06/09 05:42:23;;;;;;;20.42;18.40;;;18.70;1.00;;;;;;5102958;28;20024;-75
2021/06/09 05:44:48;;;;;;;23.42;19.35;;;18.80;1.00;;;;;;5108984;28;20036;-77
2021/06/09 05:47:15;;;;;;;22.05;19.85;;;19.10;1.00;;;;;;5100851;28;20024;-76
2021/06/09 05:49:41;;;;;;;22.13;20.02;;;19.00;1.00;;;;;;5101321;28;20024;-77
2021/06/09 05:52:08;;;;;;;22.23;19.95;;;18.70;1.00;;;;;;5100826;28;20044;-78
2021/06/09 05:54:42;;;;;;;22.35;20.10;;;18.90;1.00;;;;;;5096528;28;20024;-76
2021/06/09 05:57:10;;;;;;;22.88;20.55;;;19.30;1.00;;;;;;5099430;28;20077;-76
2021/06/09 05:59:39;;;;;;;23.15;20.85;;;19.40;1.00;;;;;;5100196;28;20495;-77
2021/06/09 06:02:04;;;;;;;22.10;19.77;;;19.60;1.00;;;;;;5101486;28;20032;-76
2021/06/09 06:04:33;;;;;;;21.13;19.08;;;19.70;1.00;;;;;;5098083;28;20028;-78
2021/06/09 06:06:59;;;;;;;22.00;19.90;;;20.00;1.00;;;;;;5102680;28;20424;-78
2021/06/09 06:09:25;;;;;;;23.05;19.30;;;20.50;99.90;;;;;;5105346;28;20024;-78
2021/06/09 06:11:51;;;;;;;20.92;18.92;;;20.80;99.90;;;;;;5099681;28;20027;-76
2021/06/09 06:14:17;;;;;;;20.35;17.98;;;20.90;99.90;;;;;;5104910;28;20487;-77
2021/06/09 06:17:09;;;;;;;19.40;17.48;;;20.30;99.90;;;;;;5114412;28;20023;-76
2021/06/09 06:19:36;;;;;;;21.17;17.05;;;21.00;99.90;;;;;;5113563;28;20046;-77
2021/06/09 06:22:08;;;;;;;19.65;17.65;;;21.00;99.90;;;;;;5114800;28;20043;-76
2021/06/09 06:24:37;;;;;;;20.10;18.15;;;21.00;99.90;;;;;;5115921;28;20023;-76
2021/06/09 06:27:04;;;;;;;19.27;16.65;;;21.10;99.90;;;;;;5114014;28;20027;-77
2021/06/09 06:29:30;;;;;;;21.20;18.45;;;21.10;99.90;;;;;;5116972;28;20110;-76
2021/06/09 06:31:56;;;;;;;21.52;18.27;;;21.20;99.90;;;;;;5122301;28;20069;-76
2021/06/09 06:34:23;;;;;;;22.23;18.95;;;21.50;99.90;;;;;;5126811;28;20052;-76
2021/06/09 06:36:49;;;;;;;30.30;21.70;;;21.60;99.90;;;;;;5119671;28;20024;-78
2021/06/09 06:39:15;;;;;;;19.10;17.02;;;20.90;99.90;;;;;;5118154;28;20399;-76
2021/06/09 06:41:41;;;;;;;16.95;15.45;;;20.70;99.90;;;;;;5100231;28;20059;-77
2021/06/09 06:44:07;;;;;;;18.85;16.20;;;21.00;99.90;;;;;;5112329;28;20041;-77
2021/06/09 06:46:32;;;;;;;18.38;16.20;;;20.90;99.90;;;;;;5096393;28;20020;-76
2021/06/09 06:48:59;;;;;;;17.75;15.80;;;21.00;99.90;;;;;;5094964;28;20086;-76
2021/06/09 06:51:26;;;;;;;16.20;14.73;;;21.70;99.90;;;;;;5095249;28;20487;-79
2021/06/09 06:53:56;;;;;;;14.25;12.95;;;21.60;99.90;;;;;;5094124;28;20028;-75
2021/06/09 06:56:25;;;;;;;14.52;13.23;;;21.10;99.90;;;;;;5092170;28;20379;-76
2021/06/09 06:58:51;;;;;;;14.45;12.68;;;21.10;99.90;;;;;;5094611;28;20081;-77
2021/06/09 07:01:31;;;;;;;14.45;13.25;;;20.80;99.90;;;;;;5100507;28;20024;-77
2021/06/09 07:03:57;;;;;;;17.17;14.43;;;20.90;99.90;;;;;;5095203;28;20024;-77
2021/06/09 07:06:23;;;;;;;16.15;14.48;;;21.00;99.90;;;;;;5094923;28;20044;-77
2021/06/09 07:08:49;;;;;;;15.32;13.93;;;20.90;99.90;;;;;;5094685;28;20061;-77
2021/06/09 07:11:16;;;;;;;15.07;13.48;;;21.10;99.90;;;;;;5101524;28;20431;-76
2021/06/09 07:13:44;;;;;;;17.02;15.35;;;21.50;99.90;;;;;;5106401;28;20042;-77
2021/06/09 07:16:11;;;;;;;16.38;14.88;;;21.50;99.90;;;;;;5115788;28;20008;-76
2021/06/09 07:18:47;;;;;;;15.82;14.35;;;22.30;99.90;;;;;;5128297;28;20058;-77
2021/06/09 07:21:17;;;;;;;17.75;15.13;;;22.60;64.00;;;;;;5116537;28;20008;-75
2021/06/09 07:23:43;;;;;;;17.05;15.52;;;22.10;73.80;;;;;;5116922;28;20041;-76
2021/06/09 07:26:10;;;;;;;17.08;15.45;;;21.90;99.90;;;;;;5132495;28;20660;-76
2021/06/09 07:28:44;;;;;;;17.10;15.48;;;22.30;58.90;;;;;;5136400;28;20079;-76
2021/06/09 07:31:10;;;;;;;16.20;14.80;;;22.90;1.00;;;;;;5126904;28;20009;-76
2021/06/09 07:33:36;;;;;;;14.85;13.65;;;23.30;99.90;;;;;;5117285;28;20024;-75
2021/06/09 07:36:06;;;;;;;17.35;15.43;;;23.30;4.20;;;;;;5116942;28;20064;-75
2021/06/09 07:38:39;;;;;;;16.55;15.20;;;23.50;1.00;;;;;;5111802;28;20044;-76
2021/06/09 07:41:07;;;;;;;17.77;15.90;;;23.70;99.90;;;;;;5113995;28;20016;-77
2021/06/09 07:43:38;;;;;;;18.25;16.40;;;23.40;99.90;;;;;;5114432;28;20019;-76
2021/06/09 07:46:12;;;;;;;20.02;17.33;;;23.10;99.90;;;;;;5124166;28;20487;-77
2021/06/09 07:48:38;;;;;;;17.90;16.35;;;22.90;1.00;;;;;;5117265;28;20501;-78
2021/06/09 07:51:10;;;;;;;17.75;16.15;;;22.60;1.00;;;;;;5117332;28;20024;-77
2021/06/09 07:53:37;;;;;;;18.02;16.27;;;22.60;99.90;;;;;;5117147;28;20023;-77
2021/06/09 07:56:04;;;;;;;16.25;14.75;;;22.70;99.90;;;;;;5116803;28;20016;-77
2021/06/09 07:58:33;;;;;;;16.73;15.32;;;23.40;99.90;;;;;;5116654;28;20119;-78
2021/06/09 08:01:00;;;;;;;18.27;16.35;;;23.40;1.00;;;;;;5114977;28;20016;-79
2021/06/09 08:03:29;;;;;;;18.02;16.20;;;24.10;14.70;;;;;;5115546;28;20046;-76
2021/06/09 08:05:58;;;;;;;17.17;15.77;;;24.00;99.90;;;;;;5118532;28;20024;-76
2021/06/09 08:08:25;;;;;;;16.52;14.93;;;24.10;99.90;;;;;;5120807;28;20020;-75
2021/06/09 08:10:51;;;;;;;17.48;15.82;;;24.20;99.90;;;;;;5112889;28;20144;-77
2021/06/09 08:13:17;;;;;;;17.50;15.90;;;24.10;95.10;;;;;;5112281;28;20052;-77
2021/06/09 08:15:43;;;;;;;16.42;14.85;;;23.90;99.90;;;;;;5105000;28;20497;-77
2021/06/09 08:18:09;;;;;;;17.58;15.93;;;24.10;10.00;;;;;;5102557;28;20023;-76
2021/06/09 08:20:42;;;;;;;17.15;15.65;;;23.90;51.90;;;;;;5103371;28;20042;-76
2021/06/09 08:23:07;;;;;;;18.25;16.65;;;23.40;99.90;;;;;;5113925;28;20067;-76
2021/06/09 08:25:33;;;;;;;17.35;15.63;;;23.40;1.00;;;;;;5118791;28;20103;-76
2021/06/09 08:27:59;;;;;;;16.98;15.57;;;23.80;99.90;;;;;;5118159;28;20031;-76
2021/06/09 08:30:25;;;;;;;16.85;15.15;;;23.60;99.90;;;;;;5128934;28;20062;-75
2021/06/09 08:32:50;;;;;;;20.17;16.75;;;24.10;99.90;;;;;;5119606;28;20080;-74
2021/06/09 08:35:17;;;;;;;17.65;16.15;;;23.80;99.90;;;;;;5119919;28;20023;-75
2021/06/09 08:37:43;;;;;;;18.17;16.58;;;23.90;99.90;;;;;;5108004;28;20091;-77
2021/06/09 08:40:11;;;;;;;17.65;15.82;;;24.00;99.90;;;;;;5099173;28;20016;-76
2021/06/09 08:42:40;;;;;;;18.17;16.27;;;23.90;99.90;;;;;;5097877;28;20040;-77
2021/06/09 08:45:19;;;;;;;18.02;16.40;;;24.30;99.90;;;;;;5102147;28;20052;-77
2021/06/09 08:47:45;;;;;;;15.95;14.60;;;24.50;1.00;;;;;;5110067;28;20043;-77
2021/06/09 08:50:12;;;;;;;17.48;15.50;;;24.30;1.70;;;;;;5098323;28;20109;-77
2021/06/09 08:53:00;;;;;;;18.90;17.20;;;24.60;1.00;;;;;;5101564;28;20047;-79
2021/06/09 08:55:26;;;;;;;17.50;16.00;;;24.90;99.90;;;;;;5100391;28;20035;-76
2021/06/09 08:57:53;;;;;;;17.20;15.55;;;24.80;99.90;;;;;;5098633;28;20032;-76
2021/06/09 09:00:19;;;;;;;16.80;15.32;;;24.80;99.90;;;;;;5098404;28;20491;-78
2021/06/09 09:02:50;;;;;;;18.77;17.10;;;24.50;99.90;;;;;;5122452;27;20024;-76
2021/06/09 09:05:16;;;;;;;;;;;24.70;99.90;;;;;;5117042;28;20434;-77
2021/06/09 09:07:43;;;;;;;18.25;16.65;;;24.60;99.90;;;;;;5131969;28;19892;-77
2021/06/09 09:10:09;;;;;;;19.80;17.95;;;24.30;1.00;;;;;;5112712;28;20020;-76
2021/06/09 09:12:36;;;;;;;18.67;17.02;;;23.90;1.00;;;;;;5135027;27;20048;-75
2021/06/09 09:15:04;;;;;;;19.75;17.92;;;23.80;99.90;;;;;;5131854;28;20023;-75
2021/06/09 09:17:29;;;;;;;19.88;18.17;;;23.60;99.90;;;;;;5126505;28;20023;-76
2021/06/09 09:20:05;;;;;;;19.88;17.88;;;23.60;99.90;;;;;;5118501;28;20024;-76
2021/06/09 09:22:35;;;;;;;20.58;18.73;;;23.70;99.90;;;;;;5104717;28;20032;-76
2021/06/09 09:25:14;;;;;;;19.50;17.75;;;23.50;99.90;;;;;;5096479;28;20027;-75
2021/06/09 09:27:40;;;;;;;20.42;18.42;;;23.60;1.00;;;;;;5104175;28;20084;-76
2021/06/09 09:30:10;;;;;;;19.85;18.15;;;24.00;99.90;;;;;;5096861;28;20024;-77
2021/06/09 09:32:37;;;;;;;19.73;18.03;;;24.00;99.90;;;;;;5096360;28;20035;-77
2021/06/09 09:35:09;;;;;;;19.85;18.05;;;24.00;99.90;;;;;;5114878;28;20319;-75
2021/06/09 09:37:35;;;;;;;17.58;16.00;;;23.70;99.90;;;;;;5119209;28;20020;-77
2021/06/09 09:40:16;;;;;;;18.15;16.33;;;24.10;99.90;;;;;;5117930;28;20432;-76
2021/06/09 09:42:43;;;;;;;18.92;17.17;;;24.50;1.00;;;;;;5131290;27;20031;-77
2021/06/09 09:45:22;;;;;;;17.88;16.35;;;24.30;1.00;;;;;;5117087;28;20020;-75
2021/06/09 09:48:23;;;;;;;19.45;17.83;;;24.50;1.00;;;;;;5116421;28;20060;-76
2021/06/09 09:50:53;;;;;;;18.00;16.50;;;24.60;99.90;;;;;;5131196;28;20043;-77
2021/06/09 09:53:36;;;;;;;17.83;16.33;;;24.60;99.90;;;;;;5100358;28;20025;-76
2021/06/09 09:56:02;;;;;;;17.67;16.27;;;25.30;99.90;;;;;;5094162;28;20020;-77
2021/06/09 09:58:29;;;;;;;17.75;16.05;;;25.40;29.80;;;;;;5096492;28;20475;-77
2021/06/09 10:01:17;;;;;;;18.90;16.95;;;24.90;99.90;;;;;;5100557;28;20027;-78
2021/06/09 10:03:55;;;;;;;18.10;16.55;;;25.40;1.00;;;;;;5117441;28;20027;-77
2021/06/09 10:06:34;;;;;;;19.33;17.42;;;25.60;1.00;;;;;;5117301;28;20023;-76
2021/06/09 10:09:24;;;;;;;18.52;16.95;;;25.20;1.00;;;;;;5116597;28;20036;-76
2021/06/09 10:12:10;;;;;;;20.25;18.35;;;25.10;1.00;;;;;;5109810;28;20436;-76
2021/06/09 10:14:46;;;;;;;18.90;17.10;;;25.20;1.00;;;;;;5118170;28;20031;-75
2021/06/09 10:17:18;;;;;;;21.13;19.13;;;25.00;14.00;;;;;;5115544;28;20019;-75
2021/06/09 10:19:56;;;;;;;20.83;18.90;;;25.40;1.00;;;;;;5117265;28;20027;-75
2021/06/09 10:22:34;;;;;;;19.80;18.10;;;25.40;1.00;;;;;;5154238;22;20040;-76
2021/06/09 10:25:14;;;;;;;20.58;17.92;;;25.40;1.00;;;;;;5073476;28;20017;-79
2021/06/09 10:27:48;;;;;;;20.40;18.50;;;25.50;1.00;;;;;;5069668;28;20037;-78
2021/06/09 10:30:20;;;;;;;22.50;18.23;;;25.50;1.00;;;;;;5075015;28;20031;-77
2021/06/09 10:32:58;;;;;;;18.92;16.70;;;25.50;1.00;;;;;;5089637;28;20021;-75
2021/06/09 10:35:28;;;;;;;18.13;16.52;;;25.50;1.00;;;;;;5090719;28;20019;-76
2021/06/09 10:37:54;;;;;;;18.40;16.70;;;25.70;1.00;;;;;;5051181;28;20025;-75
2021/06/09 10:40:25;;;;;;;17.65;16.10;;;25.80;99.90;;;;;;5036585;28;20030;-76
2021/06/09 10:42:51;;;;;;;17.80;16.17;;;25.80;99.90;;;;;;5036888;28;20021;-76
2021/06/09 10:45:18;;;;;;;18.40;16.73;;;25.90;99.90;;;;;;5036594;28;20441;-76
2021/06/09 10:47:45;;;;;;;17.45;15.95;;;26.10;99.90;;;;;;5036547;28;20040;-77
2021/06/09 10:50:12;;;;;;;16.40;14.75;;;26.20;99.90;;;;;;5037907;28;20032;-76
2021/06/09 10:52:41;;;;;;;15.90;14.32;;;26.00;99.90;;;;;;5044475;28;20022;-75
2021/06/09 10:55:09;;;;;;;15.93;14.32;;;26.10;99.90;;;;;;5059449;28;20018;-75
2021/06/09 10:57:36;;;;;;;16.40;13.90;;;26.20;99.90;;;;;;5075127;28;20016;-74
2021/06/09 11:00:05;;;;;;;14.27;13.07;;;26.00;99.90;;;;;;5061324;28;20393;-75
2021/06/09 11:02:30;;;;;;;13.75;12.43;;;26.50;99.90;;;;;;5048907;28;20070;-75
2021/06/09 11:05:03;;;;;;;13.25;12.10;;;26.50;99.90;;;;;;5054158;28;20032;-76
2021/06/09 11:07:32;;;;;;;13.00;11.80;;;26.60;99.90;;;;;;5047029;28;20085;-75
2021/06/09 11:10:00;;;;;;;11.98;11.02;;;26.90;99.90;;;;;;5052744;28;20094;-76
2021/06/09 11:12:27;;;;;;;12.93;10.88;;;27.30;99.90;;;;;;5062990;28;20044;-76
2021/06/09 11:14:59;;;;;;;9.90;9.10;;;27.40;89.50;;;;;;5064464;28;20115;-74
2021/06/09 11:17:48;;;;;;;9.85;8.95;;;27.50;37.80;;;;;;5056590;28;20035;-77
2021/06/09 11:20:32;;;;;;;10.43;9.32;;;27.20;31.70;;;;;;5057509;28;20515;-76
2021/06/09 11:23:20;;;;;;;9.43;8.60;;;27.60;12.40;;;;;;5056465;28;20079;-76
2021/06/09 11:25:49;;;;;;;9.85;8.95;;;27.60;4.10;;;;;;5054689;28;20021;-76
2021/06/09 11:28:36;;;;;;;9.32;8.57;;;27.40;2.80;;;;;;5054427;28;20029;-76
2021/06/09 11:31:21;;;;;;;9.10;8.38;;;27.50;1.00;;;;;;5055127;28;20021;-76
2021/06/09 11:34:04;;;;;;;7.68;7.07;;;27.10;1.00;;;;;;5054929;28;20047;-76
2021/06/09 11:36:38;;;;;;;8.60;7.72;;;26.60;1.00;;;;;;5052542;28;20021;-75
2021/06/09 11:39:21;;;;;;;7.38;6.78;;;26.80;1.00;;;;;;5056683;28;20025;-77
2021/06/09 11:41:48;;;;;;;7.15;6.50;;;27.70;1.00;;;;;;5057569;28;20032;-77
2021/06/09 11:44:35;;;;;;;9.05;6.35;;;28.20;1.00;;;;;;5057967;28;20029;-76
2021/06/09 11:47:16;;;;;;;10.00;9.00;;;27.90;1.00;;;;;;5059466;28;20021;-77
2021/06/09 11:49:42;;;;;;;9.55;8.75;;;27.40;1.00;;;;;;5061679;28;20032;-77
2021/06/09 11:52:08;;;;;;;8.65;7.35;;;27.60;1.00;;;;;;5062897;28;20021;-77
2021/06/09 11:54:36;;;;;;;10.20;8.57;;;27.60;1.00;;;;;;5039831;28;20033;-76
2021/06/09 11:57:18;;;;;;;9.13;8.23;;;27.10;1.00;;;;;;5038541;28;20025;-76
2021/06/09 11:59:46;;;;;;;10.10;9.10;;;27.60;1.00;;;;;;5055162;28;20032;-76
2021/06/09 12:02:23;;;;;;;10.65;9.55;;;27.90;1.00;;;;;;5046194;28;20033;-76
2021/06/09 12:04:50;;;;;;;10.57;9.38;;;28.10;1.00;;;;;;5050965;28;20025;-77
2021/06/09 12:07:27;;;;;;;11.73;10.65;;;27.10;1.00;;;;;;5059689;28;20027;-78
2021/06/09 12:09:56;;;;;;;10.77;9.88;;;26.20;18.90;;;;;;5057416;28;20075;-76
2021/06/09 12:12:23;;;;;;;11.68;10.77;;;25.90;36.60;;;;;;5058577;28;20021;-76
2021/06/09 12:14:56;;;;;;;11.23;10.13;;;25.80;50.90;;;;;;5059551;28;20017;-76
2021/06/09 12:17:27;;;;;;;10.63;9.63;;;26.30;51.10;;;;;;5071284;28;20049;-76
2021/06/09 12:19:59;;;;;;;12.48;11.45;;;26.30;45.30;;;;;;5080969;28;20046;-77
2021/06/09 12:22:29;;;;;;;14.68;11.60;;;25.90;51.30;;;;;;5080960;28;20018;-76
2021/06/09 12:25:07;;;;;;;12.25;11.30;;;26.20;42.90;;;;;;5080041;28;20009;-76
2021/06/09 12:27:35;;;;;;;11.93;10.93;;;26.00;32.00;;;;;;5080795;28;20017;-75
2021/06/09 12:30:03;;;;;;;11.38;10.48;;;26.80;16.80;;;;;;5080352;28;20037;-75
2021/06/09 12:32:31;;;;;;;11.23;10.43;;;26.90;20.20;;;;;;5080080;28;20069;-73
2021/06/09 12:34:57;;;;;;;10.75;9.82;;;26.90;13.40;;;;;;5079866;28;20089;-74
2021/06/09 12:37:24;;;;;;;11.48;10.50;;;27.10;4.80;;;;;;5080564;28;20024;-76
2021/06/09 12:40:06;;;;;;;13.30;11.48;;;27.10;1.00;;;;;;5080478;28;20023;-74
2021/06/09 12:42:32;;;;;;;11.30;10.40;;;27.40;1.00;;;;;;5080048;28;20016;-76
2021/06/09 12:44:58;;;;;;;10.05;9.35;;;27.40;1.00;;;;;;5079855;28;20005;-75
2021/06/09 12:47:25;;;;;;;10.10;9.20;;;26.90;1.00;;;;;;5079599;28;20025;-75
2021/06/09 12:50:12;;;;;;;7.63;6.85;;;27.10;1.00;;;;;;5072811;28;20312;-75
2021/06/09 12:52:39;;;;;;;8.40;7.60;;;26.90;1.00;;;;;;5065999;28;20032;-75